Aviation Digital Data Service (ADDS)

Output produced by METARs form (0009 UTC 23 September 2017)
found at http://aviationweather.gov/adds/metars/
 
KLAX 222331Z 2300/2406 27014KT P6SM FEW040 
     FM230200 25008KT P6SM SKC 
     FM230500 VRB04KT P6SM SKC 
     FM231500 10006KT P6SM SCT020 
     FM232000 25011KT P6SM SKC 
     FM240300 26007KT P6SM SKC